sensor_id;sensor_type;location;lat;lon;timestamp;P1;durP1;ratioP1;P2;durP2;ratioP2
64950;SDS011;51482;47.014;7.652;2022-09-03T00:01:40;4.25;;;3.33;;
64950;SDS011;51482;47.014;7.652;2022-09-03T00:04:31;3.65;;;2.80;;
64950;SDS011;51482;47.014;7.652;2022-09-03T00:07:10;4.38;;;3.08;;
64950;SDS011;51482;47.014;7.652;2022-09-03T00:09:45;3.22;;;3.00;;
64950;SDS011;51482;47.014;7.652;2022-09-03T00:12:14;4.72;;;3.10;;
64950;SDS011;51482;47.014;7.652;2022-09-03T00:14:46;3.30;;;2.90;;
64950;SDS011;51482;47.014;7.652;2022-09-03T00:17:33;4.45;;;3.00;;
64950;SDS011;51482;47.014;7.652;2022-09-03T00:20:07;2.78;;;2.58;;
64950;SDS011;51482;47.014;7.652;2022-09-03T00:22:42;3.05;;;2.75;;
64950;SDS011;51482;47.014;7.652;2022-09-03T00:25:12;2.80;;;2.60;;
64950;SDS011;51482;47.014;7.652;2022-09-03T00:27:42;3.85;;;2.95;;
64950;SDS011;51482;47.014;7.652;2022-09-03T00:30:15;4.00;;;3.00;;
64950;SDS011;51482;47.014;7.652;2022-09-03T00:35:13;3.53;;;3.22;;
64950;SDS011;51482;47.014;7.652;2022-09-03T00:37:49;3.33;;;3.03;;
64950;SDS011;51482;47.014;7.652;2022-09-03T00:46:14;3.40;;;3.10;;
64950;SDS011;51482;47.014;7.652;2022-09-03T00:51:12;3.65;;;3.33;;
64950;SDS011;51482;47.014;7.652;2022-09-03T00:53:52;6.38;;;3.08;;
64950;SDS011;51482;47.014;7.652;2022-09-03T01:07:30;3.50;;;3.20;;
64950;SDS011;51482;47.014;7.652;2022-09-03T01:10:08;3.40;;;3.05;;
64950;SDS011;51482;47.014;7.652;2022-09-03T01:13:05;3.20;;;3.00;;
64950;SDS011;51482;47.014;7.652;2022-09-03T01:24:25;3.22;;;2.92;;
64950;SDS011;51482;47.014;7.652;2022-09-03T01:29:43;6.10;;;3.40;;
64950;SDS011;51482;47.014;7.652;2022-09-03T01:35:02;4.20;;;3.17;;
64950;SDS011;51482;47.014;7.652;2022-09-03T01:38:08;3.90;;;3.50;;
64950;SDS011;51482;47.014;7.652;2022-09-03T01:40:46;3.80;;;3.20;;
64950;SDS011;51482;47.014;7.652;2022-09-03T01:43:57;4.13;;;3.20;;
64950;SDS011;51482;47.014;7.652;2022-09-03T01:46:44;4.38;;;3.20;;
64950;SDS011;51482;47.014;7.652;2022-09-03T01:49:18;3.38;;;3.05;;
64950;SDS011;51482;47.014;7.652;2022-09-03T01:52:20;4.00;;;3.50;;
64950;SDS011;51482;47.014;7.652;2022-09-03T01:55:16;3.30;;;2.97;;
64950;SDS011;51482;47.014;7.652;2022-09-03T01:57:55;3.70;;;3.40;;
64950;SDS011;51482;47.014;7.652;2022-09-03T02:00:44;3.72;;;3.10;;
64950;SDS011;51482;47.014;7.652;2022-09-03T02:03:14;3.20;;;2.80;;
64950;SDS011;51482;47.014;7.652;2022-09-03T02:05:41;4.55;;;2.88;;
64950;SDS011;51482;47.014;7.652;2022-09-03T02:08:08;3.05;;;2.85;;
64950;SDS011;51482;47.014;7.652;2022-09-03T02:10:44;3.63;;;3.15;;
64950;SDS011;51482;47.014;7.652;2022-09-03T02:13:27;4.20;;;2.90;;
64950;SDS011;51482;47.014;7.652;2022-09-03T02:15:57;4.25;;;3.33;;
64950;SDS011;51482;47.014;7.652;2022-09-03T02:18:35;5.47;;;2.55;;
64950;SDS011;51482;47.014;7.652;2022-09-03T02:21:05;6.90;;;2.95;;
64950;SDS011;51482;47.014;7.652;2022-09-03T02:23:31;4.00;;;3.30;;
64950;SDS011;51482;47.014;7.652;2022-09-03T02:25:58;4.00;;;3.40;;
64950;SDS011;51482;47.014;7.652;2022-09-03T02:28:29;3.75;;;3.15;;
64950;SDS011;51482;47.014;7.652;2022-09-03T02:30:56;3.88;;;3.50;;
64950;SDS011;51482;47.014;7.652;2022-09-03T02:33:22;4.75;;;3.60;;
64950;SDS011;51482;47.014;7.652;2022-09-03T02:35:49;3.38;;;3.08;;
64950;SDS011;51482;47.014;7.652;2022-09-03T02:38:16;4.70;;;3.30;;
64950;SDS011;51482;47.014;7.652;2022-09-03T02:40:44;5.55;;;3.47;;
64950;SDS011;51482;47.014;7.652;2022-09-03T02:43:33;3.70;;;3.40;;
64950;SDS011;51482;47.014;7.652;2022-09-03T02:46:03;3.50;;;3.17;;
64950;SDS011;51482;47.014;7.652;2022-09-03T02:48:31;3.70;;;3.30;;
64950;SDS011;51482;47.014;7.652;2022-09-03T02:50:57;4.72;;;3.30;;
64950;SDS011;51482;47.014;7.652;2022-09-03T02:53:23;4.10;;;3.22;;
64950;SDS011;51482;47.014;7.652;2022-09-03T02:55:48;3.78;;;3.47;;
64950;SDS011;51482;47.014;7.652;2022-09-03T02:58:14;4.90;;;3.75;;
64950;SDS011;51482;47.014;7.652;2022-09-03T03:00:40;4.55;;;3.42;;
64950;SDS011;51482;47.014;7.652;2022-09-03T03:03:06;4.10;;;3.47;;
64950;SDS011;51482;47.014;7.652;2022-09-03T03:05:35;7.47;;;3.67;;
64950;SDS011;51482;47.014;7.652;2022-09-03T03:08:06;3.92;;;3.50;;
64950;SDS011;51482;47.014;7.652;2022-09-03T03:10:33;4.38;;;3.38;;
64950;SDS011;51482;47.014;7.652;2022-09-03T03:12:59;4.75;;;3.40;;
64950;SDS011;51482;47.014;7.652;2022-09-03T03:15:25;4.38;;;3.85;;
64950;SDS011;51482;47.014;7.652;2022-09-03T03:17:51;3.95;;;3.28;;
64950;SDS011;51482;47.014;7.652;2022-09-03T03:20:20;3.55;;;3.25;;
64950;SDS011;51482;47.014;7.652;2022-09-03T03:22:45;5.72;;;3.60;;
64950;SDS011;51482;47.014;7.652;2022-09-03T03:25:11;4.55;;;4.13;;
64950;SDS011;51482;47.014;7.652;2022-09-03T03:27:36;5.05;;;3.40;;
64950;SDS011;51482;47.014;7.652;2022-09-03T03:30:05;7.50;;;3.55;;
64950;SDS011;51482;47.014;7.652;2022-09-03T03:32:33;6.13;;;3.30;;
64950;SDS011;51482;47.014;7.652;2022-09-03T03:35:02;3.40;;;3.10;;
64950;SDS011;51482;47.014;7.652;2022-09-03T03:37:29;5.80;;;3.45;;
64950;SDS011;51482;47.014;7.652;2022-09-03T03:39:55;3.40;;;3.10;;
64950;SDS011;51482;47.014;7.652;2022-09-03T03:42:21;4.35;;;3.40;;
64950;SDS011;51482;47.014;7.652;2022-09-03T03:44:46;3.50;;;3.20;;
64950;SDS011;51482;47.014;7.652;2022-09-03T03:47:12;3.58;;;3.28;;
64950;SDS011;51482;47.014;7.652;2022-09-03T03:49:40;4.47;;;3.42;;
64950;SDS011;51482;47.014;7.652;2022-09-03T03:52:06;3.47;;;3.15;;
64950;SDS011;51482;47.014;7.652;2022-09-03T03:54:32;3.80;;;3.40;;
64950;SDS011;51482;47.014;7.652;2022-09-03T03:56:58;4.25;;;3.35;;
64950;SDS011;51482;47.014;7.652;2022-09-03T03:59:23;4.82;;;3.45;;
64950;SDS011;51482;47.014;7.652;2022-09-03T04:01:49;4.10;;;3.40;;
64950;SDS011;51482;47.014;7.652;2022-09-03T04:04:15;5.18;;;3.47;;
64950;SDS011;51482;47.014;7.652;2022-09-03T04:06:40;5.70;;;3.60;;
64950;SDS011;51482;47.014;7.652;2022-09-03T04:09:06;5.30;;;3.40;;
64950;SDS011;51482;47.014;7.652;2022-09-03T04:11:32;4.63;;;3.15;;
64950;SDS011;51482;47.014;7.652;2022-09-03T04:13:57;5.13;;;3.05;;
64950;SDS011;51482;47.014;7.652;2022-09-03T04:16:24;3.88;;;3.25;;
64950;SDS011;51482;47.014;7.652;2022-09-03T04:18:51;4.25;;;3.65;;
64950;SDS011;51482;47.014;7.652;2022-09-03T04:21:19;3.78;;;3.28;;
64950;SDS011;51482;47.014;7.652;2022-09-03T04:23:47;4.10;;;3.20;;
64950;SDS011;51482;47.014;7.652;2022-09-03T04:26:15;3.42;;;3.13;;
64950;SDS011;51482;47.014;7.652;2022-09-03T04:28:42;3.47;;;3.17;;
64950;SDS011;51482;47.014;7.652;2022-09-03T04:31:09;3.30;;;3.00;;
64950;SDS011;51482;47.014;7.652;2022-09-03T04:33:36;3.50;;;3.03;;
64950;SDS011;51482;47.014;7.652;2022-09-03T04:36:06;4.68;;;3.85;;
64950;SDS011;51482;47.014;7.652;2022-09-03T04:38:40;3.28;;;2.97;;
64950;SDS011;51482;47.014;7.652;2022-09-03T04:41:07;5.18;;;3.35;;
64950;SDS011;51482;47.014;7.652;2022-09-03T04:43:34;3.42;;;3.10;;
64950;SDS011;51482;47.014;7.652;2022-09-03T04:46:01;8.43;;;3.10;;
64950;SDS011;51482;47.014;7.652;2022-09-03T04:48:32;3.70;;;3.33;;
64950;SDS011;51482;47.014;7.652;2022-09-03T04:51:06;3.97;;;3.38;;
64950;SDS011;51482;47.014;7.652;2022-09-03T04:53:37;4.15;;;3.33;;
64950;SDS011;51482;47.014;7.652;2022-09-03T04:56:15;3.10;;;2.80;;
64950;SDS011;51482;47.014;7.652;2022-09-03T04:58:41;3.47;;;3.17;;
64950;SDS011;51482;47.014;7.652;2022-09-03T05:01:08;3.47;;;3.15;;
64950;SDS011;51482;47.014;7.652;2022-09-03T05:03:34;3.90;;;3.20;;
64950;SDS011;51482;47.014;7.652;2022-09-03T05:06:01;3.10;;;2.90;;
64950;SDS011;51482;47.014;7.652;2022-09-03T05:08:27;3.28;;;2.97;;
64950;SDS011;51482;47.014;7.652;2022-09-03T05:10:59;3.67;;;3.22;;
64950;SDS011;51482;47.014;7.652;2022-09-03T05:13:24;3.58;;;3.28;;
64950;SDS011;51482;47.014;7.652;2022-09-03T05:15:50;3.55;;;3.25;;
64950;SDS011;51482;47.014;7.652;2022-09-03T05:18:16;3.22;;;2.92;;
64950;SDS011;51482;47.014;7.652;2022-09-03T05:20:42;3.47;;;3.17;;
64950;SDS011;51482;47.014;7.652;2022-09-03T05:23:07;3.25;;;2.95;;
64950;SDS011;51482;47.014;7.652;2022-09-03T05:25:33;3.92;;;2.80;;
64950;SDS011;51482;47.014;7.652;2022-09-03T05:27:59;4.63;;;2.97;;
64950;SDS011;51482;47.014;7.652;2022-09-03T05:30:25;3.50;;;3.20;;
64950;SDS011;51482;47.014;7.652;2022-09-03T05:32:51;3.17;;;2.83;;
64950;SDS011;51482;47.014;7.652;2022-09-03T05:35:17;4.03;;;3.63;;
64950;SDS011;51482;47.014;7.652;2022-09-03T05:37:43;3.45;;;3.15;;
64950;SDS011;51482;47.014;7.652;2022-09-03T05:40:09;3.40;;;2.97;;
64950;SDS011;51482;47.014;7.652;2022-09-03T05:42:35;3.13;;;2.83;;
64950;SDS011;51482;47.014;7.652;2022-09-03T05:45:02;4.53;;;3.28;;
64950;SDS011;51482;47.014;7.652;2022-09-03T05:47:30;4.90;;;3.25;;
64950;SDS011;51482;47.014;7.652;2022-09-03T05:49:56;4.38;;;3.10;;
64950;SDS011;51482;47.014;7.652;2022-09-03T05:52:22;4.80;;;2.85;;
64950;SDS011;51482;47.014;7.652;2022-09-03T05:54:47;2.97;;;2.70;;
64950;SDS011;51482;47.014;7.652;2022-09-03T05:57:13;2.88;;;2.67;;
64950;SDS011;51482;47.014;7.652;2022-09-03T05:59:38;4.65;;;2.90;;
64950;SDS011;51482;47.014;7.652;2022-09-03T06:02:04;3.20;;;2.90;;
64950;SDS011;51482;47.014;7.652;2022-09-03T06:04:30;3.47;;;2.70;;
64950;SDS011;51482;47.014;7.652;2022-09-03T06:06:56;3.22;;;2.92;;
64950;SDS011;51482;47.014;7.652;2022-09-03T06:09:22;3.22;;;2.80;;
64950;SDS011;51482;47.014;7.652;2022-09-03T06:11:47;3.58;;;3.13;;
64950;SDS011;51482;47.014;7.652;2022-09-03T06:14:13;3.42;;;3.03;;
64950;SDS011;51482;47.014;7.652;2022-09-03T06:16:41;3.35;;;3.05;;
64950;SDS011;51482;47.014;7.652;2022-09-03T06:19:08;2.88;;;2.67;;
64950;SDS011;51482;47.014;7.652;2022-09-03T06:21:35;3.50;;;2.95;;
64950;SDS011;51482;47.014;7.652;2022-09-03T06:24:06;3.30;;;2.92;;
64950;SDS011;51482;47.014;7.652;2022-09-03T06:26:43;3.03;;;2.83;;
64950;SDS011;51482;47.014;7.652;2022-09-03T06:29:09;3.25;;;2.95;;
64950;SDS011;51482;47.014;7.652;2022-09-03T06:31:35;4.93;;;4.30;;
64950;SDS011;51482;47.014;7.652;2022-09-03T06:34:01;3.72;;;3.42;;
64950;SDS011;51482;47.014;7.652;2022-09-03T06:36:27;3.95;;;3.00;;
64950;SDS011;51482;47.014;7.652;2022-09-03T06:38:53;3.70;;;3.40;;
64950;SDS011;51482;47.014;7.652;2022-09-03T06:41:21;3.58;;;3.28;;
64950;SDS011;51482;47.014;7.652;2022-09-03T06:43:52;3.70;;;3.40;;
64950;SDS011;51482;47.014;7.652;2022-09-03T06:46:21;3.92;;;3.53;;
64950;SDS011;51482;47.014;7.652;2022-09-03T06:48:48;3.28;;;3.08;;
64950;SDS011;51482;47.014;7.652;2022-09-03T06:51:27;3.83;;;3.15;;
64950;SDS011;51482;47.014;7.652;2022-09-03T06:53:58;4.40;;;3.20;;
64950;SDS011;51482;47.014;7.652;2022-09-03T06:56:25;4.03;;;2.95;;
64950;SDS011;51482;47.014;7.652;2022-09-03T06:58:51;3.95;;;3.00;;
64950;SDS011;51482;47.014;7.652;2022-09-03T07:01:22;2.92;;;2.72;;
64950;SDS011;51482;47.014;7.652;2022-09-03T07:03:57;3.30;;;3.00;;
64950;SDS011;51482;47.014;7.652;2022-09-03T07:06:31;2.78;;;2.55;;
64950;SDS011;51482;47.014;7.652;2022-09-03T07:09:02;4.13;;;2.72;;
64950;SDS011;51482;47.014;7.652;2022-09-03T07:11:28;3.75;;;2.90;;
64950;SDS011;51482;47.014;7.652;2022-09-03T07:13:57;3.88;;;3.53;;
64950;SDS011;51482;47.014;7.652;2022-09-03T07:16:24;4.75;;;3.25;;
64950;SDS011;51482;47.014;7.652;2022-09-03T07:18:51;3.55;;;3.25;;
64950;SDS011;51482;47.014;7.652;2022-09-03T07:21:18;4.63;;;3.15;;
64950;SDS011;51482;47.014;7.652;2022-09-03T07:23:49;2.97;;;2.78;;
64950;SDS011;51482;47.014;7.652;2022-09-03T07:26:17;5.43;;;3.22;;
64950;SDS011;51482;47.014;7.652;2022-09-03T07:28:45;4.45;;;2.75;;
64950;SDS011;51482;47.014;7.652;2022-09-03T07:31:12;4.38;;;3.00;;
64950;SDS011;51482;47.014;7.652;2022-09-03T07:33:50;3.17;;;2.88;;
64950;SDS011;51482;47.014;7.652;2022-09-03T07:36:23;3.50;;;3.20;;
64950;SDS011;51482;47.014;7.652;2022-09-03T07:38:50;4.15;;;3.45;;
64950;SDS011;51482;47.014;7.652;2022-09-03T07:41:23;4.65;;;3.30;;
64950;SDS011;51482;47.014;7.652;2022-09-03T07:43:50;3.42;;;3.13;;
64950;SDS011;51482;47.014;7.652;2022-09-03T07:46:18;3.92;;;3.60;;
64950;SDS011;51482;47.014;7.652;2022-09-03T07:48:48;3.28;;;2.97;;
64950;SDS011;51482;47.014;7.652;2022-09-03T07:51:16;5.63;;;3.45;;
64950;SDS011;51482;47.014;7.652;2022-09-03T07:53:43;4.68;;;4.28;;
64950;SDS011;51482;47.014;7.652;2022-09-03T07:56:09;4.30;;;3.67;;
64950;SDS011;51482;47.014;7.652;2022-09-03T07:58:37;5.00;;;3.60;;
64950;SDS011;51482;47.014;7.652;2022-09-03T08:01:04;6.18;;;4.07;;
64950;SDS011;51482;47.014;7.652;2022-09-03T08:03:44;5.30;;;3.90;;
64950;SDS011;51482;47.014;7.652;2022-09-03T08:06:11;4.25;;;3.35;;
64950;SDS011;51482;47.014;7.652;2022-09-03T08:08:38;3.70;;;3.35;;
64950;SDS011;51482;47.014;7.652;2022-09-03T08:13:45;4.70;;;3.40;;
64950;SDS011;51482;47.014;7.652;2022-09-03T08:16:12;4.78;;;3.17;;
64950;SDS011;51482;47.014;7.652;2022-09-03T08:18:44;3.67;;;3.38;;
64950;SDS011;51482;47.014;7.652;2022-09-03T08:21:12;3.63;;;3.20;;
64950;SDS011;51482;47.014;7.652;2022-09-03T08:23:40;4.07;;;3.50;;
64950;SDS011;51482;47.014;7.652;2022-09-03T08:26:18;6.68;;;4.70;;
64950;SDS011;51482;47.014;7.652;2022-09-03T08:28:44;6.43;;;4.60;;
64950;SDS011;51482;47.014;7.652;2022-09-03T08:31:11;4.63;;;3.95;;
64950;SDS011;51482;47.014;7.652;2022-09-03T08:33:39;4.10;;;3.72;;
64950;SDS011;51482;47.014;7.652;2022-09-03T08:36:11;3.28;;;2.97;;
64950;SDS011;51482;47.014;7.652;2022-09-03T08:38:39;3.67;;;3.38;;
64950;SDS011;51482;47.014;7.652;2022-09-03T08:46:54;3.45;;;3.15;;
64950;SDS011;51482;47.014;7.652;2022-09-03T08:49:38;3.60;;;3.30;;
64950;SDS011;51482;47.014;7.652;2022-09-03T08:52:20;4.80;;;2.97;;
64950;SDS011;51482;47.014;7.652;2022-09-03T08:55:22;4.30;;;3.17;;
64950;SDS011;51482;47.014;7.652;2022-09-03T08:57:52;2.92;;;2.67;;
64950;SDS011;51482;47.014;7.652;2022-09-03T09:06:17;2.58;;;2.35;;
64950;SDS011;51482;47.014;7.652;2022-09-03T09:11:45;3.88;;;2.60;;
64950;SDS011;51482;47.014;7.652;2022-09-03T09:14:35;2.92;;;2.60;;
64950;SDS011;51482;47.014;7.652;2022-09-03T09:20:20;3.05;;;2.78;;
64950;SDS011;51482;47.014;7.652;2022-09-03T09:23:06;3.78;;;2.60;;
64950;SDS011;51482;47.014;7.652;2022-09-03T09:25:37;2.40;;;2.20;;
64950;SDS011;51482;47.014;7.652;2022-09-03T09:30:41;3.78;;;2.92;;
64950;SDS011;51482;47.014;7.652;2022-09-03T09:33:11;5.95;;;2.72;;
64950;SDS011;51482;47.014;7.652;2022-09-03T09:35:37;3.70;;;3.00;;
64950;SDS011;51482;47.014;7.652;2022-09-03T09:38:06;4.38;;;3.28;;
64950;SDS011;51482;47.014;7.652;2022-09-03T09:40:36;4.85;;;3.00;;
64950;SDS011;51482;47.014;7.652;2022-09-03T09:43:04;2.97;;;2.78;;
64950;SDS011;51482;47.014;7.652;2022-09-03T09:45:31;3.13;;;2.83;;
64950;SDS011;51482;47.014;7.652;2022-09-03T09:47:58;3.70;;;2.80;;
64950;SDS011;51482;47.014;7.652;2022-09-03T09:50:24;3.65;;;3.35;;
64950;SDS011;51482;47.014;7.652;2022-09-03T09:53:00;3.53;;;3.28;;
64950;SDS011;51482;47.014;7.652;2022-09-03T09:55:47;3.38;;;3.03;;
64950;SDS011;51482;47.014;7.652;2022-09-03T09:58:18;3.65;;;3.08;;
64950;SDS011;51482;47.014;7.652;2022-09-03T10:00:55;3.78;;;3.38;;
64950;SDS011;51482;47.014;7.652;2022-09-03T10:03:22;3.70;;;3.40;;
64950;SDS011;51482;47.014;7.652;2022-09-03T10:05:59;3.70;;;3.35;;
64950;SDS011;51482;47.014;7.652;2022-09-03T10:08:47;4.45;;;3.13;;
64950;SDS011;51482;47.014;7.652;2022-09-03T10:11:13;3.35;;;3.05;;
64950;SDS011;51482;47.014;7.652;2022-09-03T10:13:42;3.40;;;3.10;;
64950;SDS011;51482;47.014;7.652;2022-09-03T10:16:18;3.10;;;2.90;;
64950;SDS011;51482;47.014;7.652;2022-09-03T10:18:57;4.15;;;3.35;;
64950;SDS011;51482;47.014;7.652;2022-09-03T10:21:35;3.25;;;2.95;;
64950;SDS011;51482;47.014;7.652;2022-09-03T10:26:47;2.65;;;2.40;;
64950;SDS011;51482;47.014;7.652;2022-09-03T10:29:17;2.83;;;2.60;;
64950;SDS011;51482;47.014;7.652;2022-09-03T10:32:22;2.65;;;2.45;;
64950;SDS011;51482;47.014;7.652;2022-09-03T10:34:41;2.53;;;2.33;;
64950;SDS011;51482;47.014;7.652;2022-09-03T10:37:18;2.63;;;2.42;;
64950;SDS011;51482;47.014;7.652;2022-09-03T10:39:52;2.55;;;2.30;;
64950;SDS011;51482;47.014;7.652;2022-09-03T10:48:08;2.28;;;2.08;;
64950;SDS011;51482;47.014;7.652;2022-09-03T10:50:47;1.98;;;1.75;;
64950;SDS011;51482;47.014;7.652;2022-09-03T11:07:20;1.80;;;1.70;;
64950;SDS011;51482;47.014;7.652;2022-09-03T11:12:45;2.00;;;1.80;;
64950;SDS011;51482;47.014;7.652;2022-09-03T11:20:43;1.70;;;1.60;;
64950;SDS011;51482;47.014;7.652;2022-09-03T11:23:11;1.60;;;1.50;;
64950;SDS011;51482;47.014;7.652;2022-09-03T11:25:40;1.85;;;1.60;;
64950;SDS011;51482;47.014;7.652;2022-09-03T11:28:26;1.50;;;1.40;;
64950;SDS011;51482;47.014;7.652;2022-09-03T11:31:15;1.40;;;1.30;;
64950;SDS011;51482;47.014;7.652;2022-09-03T11:36:31;1.45;;;1.35;;
64950;SDS011;51482;47.014;7.652;2022-09-03T11:42:02;1.92;;;1.70;;
64950;SDS011;51482;47.014;7.652;2022-09-03T11:47:12;1.73;;;1.55;;
64950;SDS011;51482;47.014;7.652;2022-09-03T11:49:44;1.58;;;1.48;;
64950;SDS011;51482;47.014;7.652;2022-09-03T11:52:13;1.40;;;1.30;;
64950;SDS011;51482;47.014;7.652;2022-09-03T11:54:53;1.50;;;1.40;;
64950;SDS011;51482;47.014;7.652;2022-09-03T11:57:24;2.10;;;2.00;;
64950;SDS011;51482;47.014;7.652;2022-09-03T12:00:13;1.75;;;1.58;;
64950;SDS011;51482;47.014;7.652;2022-09-03T12:03:03;2.58;;;1.60;;
64950;SDS011;51482;47.014;7.652;2022-09-03T12:13:50;1.60;;;1.50;;
64950;SDS011;51482;47.014;7.652;2022-09-03T12:16:33;1.80;;;1.70;;
64950;SDS011;51482;47.014;7.652;2022-09-03T12:19:30;1.67;;;1.58;;
64950;SDS011;51482;47.014;7.652;2022-09-03T12:22:03;1.83;;;1.63;;
64950;SDS011;51482;47.014;7.652;2022-09-03T12:24:29;1.83;;;1.73;;
64950;SDS011;51482;47.014;7.652;2022-09-03T12:26:59;3.08;;;1.38;;
64950;SDS011;51482;47.014;7.652;2022-09-03T12:29:27;2.08;;;1.65;;
64950;SDS011;51482;47.014;7.652;2022-09-03T12:31:54;1.77;;;1.67;;
64950;SDS011;51482;47.014;7.652;2022-09-03T12:34:21;1.65;;;1.55;;
64950;SDS011;51482;47.014;7.652;2022-09-03T12:36:52;1.85;;;1.75;;
64950;SDS011;51482;47.014;7.652;2022-09-03T12:39:22;1.75;;;1.65;;
64950;SDS011;51482;47.014;7.652;2022-09-03T12:44:32;1.67;;;1.58;;
64950;SDS011;51482;47.014;7.652;2022-09-03T12:47:11;2.17;;;1.88;;
64950;SDS011;51482;47.014;7.652;2022-09-03T12:49:39;1.70;;;1.60;;
64950;SDS011;51482;47.014;7.652;2022-09-03T12:52:09;2.45;;;1.58;;
64950;SDS011;51482;47.014;7.652;2022-09-03T12:54:45;1.73;;;1.60;;
64950;SDS011;51482;47.014;7.652;2022-09-03T12:57:13;2.22;;;2.10;;
64950;SDS011;51482;47.014;7.652;2022-09-03T12:59:45;1.70;;;1.60;;
64950;SDS011;51482;47.014;7.652;2022-09-03T13:02:17;2.25;;;2.00;;
64950;SDS011;51482;47.014;7.652;2022-09-03T13:04:50;1.85;;;1.75;;
64950;SDS011;51482;47.014;7.652;2022-09-03T13:07:21;2.10;;;2.00;;
64950;SDS011;51482;47.014;7.652;2022-09-03T13:09:49;2.17;;;1.90;;
64950;SDS011;51482;47.014;7.652;2022-09-03T13:12:19;2.00;;;1.90;;
64950;SDS011;51482;47.014;7.652;2022-09-03T13:14:47;2.10;;;2.00;;
64950;SDS011;51482;47.014;7.652;2022-09-03T13:22:55;3.10;;;1.90;;
64950;SDS011;51482;47.014;7.652;2022-09-03T13:28:09;1.80;;;1.70;;
64950;SDS011;51482;47.014;7.652;2022-09-03T13:33:34;2.33;;;2.20;;
64950;SDS011;51482;47.014;7.652;2022-09-03T13:36:09;2.00;;;1.77;;
64950;SDS011;51482;47.014;7.652;2022-09-03T13:44:11;2.08;;;1.90;;
64950;SDS011;51482;47.014;7.652;2022-09-03T13:55:08;2.90;;;2.22;;
64950;SDS011;51482;47.014;7.652;2022-09-03T13:57:48;2.45;;;1.90;;
64950;SDS011;51482;47.014;7.652;2022-09-03T14:03:49;4.10;;;1.90;;
64950;SDS011;51482;47.014;7.652;2022-09-03T14:06:40;1.90;;;1.75;;
64950;SDS011;51482;47.014;7.652;2022-09-03T14:11:47;2.40;;;2.20;;
64950;SDS011;51482;47.014;7.652;2022-09-03T14:17:31;1.98;;;1.88;;
64950;SDS011;51482;47.014;7.652;2022-09-03T14:20:16;2.22;;;2.05;;
64950;SDS011;51482;47.014;7.652;2022-09-03T14:25:31;2.17;;;2.08;;
64950;SDS011;51482;47.014;7.652;2022-09-03T14:30:58;1.98;;;1.83;;
64950;SDS011;51482;47.014;7.652;2022-09-03T14:33:37;2.70;;;2.08;;
64950;SDS011;51482;47.014;7.652;2022-09-03T14:38:52;2.05;;;1.85;;
64950;SDS011;51482;47.014;7.652;2022-09-03T14:41:25;2.50;;;2.30;;
64950;SDS011;51482;47.014;7.652;2022-09-03T14:50:01;2.42;;;2.22;;
64950;SDS011;51482;47.014;7.652;2022-09-03T14:58:23;2.53;;;2.33;;
64950;SDS011;51482;47.014;7.652;2022-09-03T15:10:14;2.53;;;2.00;;
64950;SDS011;51482;47.014;7.652;2022-09-03T15:12:46;2.17;;;2.00;;
64950;SDS011;51482;47.014;7.652;2022-09-03T15:15:19;2.38;;;2.17;;
64950;SDS011;51482;47.014;7.652;2022-09-03T15:20:51;2.92;;;2.10;;
64950;SDS011;51482;47.014;7.652;2022-09-03T15:23:26;2.90;;;2.30;;
64950;SDS011;51482;47.014;7.652;2022-09-03T15:28:58;2.63;;;2.42;;
64950;SDS011;51482;47.014;7.652;2022-09-03T15:37:31;2.60;;;2.40;;
64950;SDS011;51482;47.014;7.652;2022-09-03T15:40:08;2.85;;;2.38;;
64950;SDS011;51482;47.014;7.652;2022-09-03T15:42:35;4.15;;;2.30;;
64950;SDS011;51482;47.014;7.652;2022-09-03T15:45:03;2.38;;;2.17;;
64950;SDS011;51482;47.014;7.652;2022-09-03T15:50:14;2.78;;;2.38;;
64950;SDS011;51482;47.014;7.652;2022-09-03T15:52:58;2.53;;;1.92;;
64950;SDS011;51482;47.014;7.652;2022-09-03T15:55:30;3.33;;;2.28;;
64950;SDS011;51482;47.014;7.652;2022-09-03T16:00:58;3.15;;;2.30;;
64950;SDS011;51482;47.014;7.652;2022-09-03T16:03:36;1.95;;;1.85;;
64950;SDS011;51482;47.014;7.652;2022-09-03T16:06:19;2.28;;;2.08;;
64950;SDS011;51482;47.014;7.652;2022-09-03T16:09:08;2.40;;;2.20;;
64950;SDS011;51482;47.014;7.652;2022-09-03T16:12:05;2.28;;;2.10;;
64950;SDS011;51482;47.014;7.652;2022-09-03T16:15:17;2.30;;;2.10;;
64950;SDS011;51482;47.014;7.652;2022-09-03T16:20:40;3.55;;;2.40;;
64950;SDS011;51482;47.014;7.652;2022-09-03T16:23:11;2.47;;;2.28;;
64950;SDS011;51482;47.014;7.652;2022-09-03T16:25:55;2.83;;;2.25;;
64950;SDS011;51482;47.014;7.652;2022-09-03T16:28:35;2.75;;;2.25;;
64950;SDS011;51482;47.014;7.652;2022-09-03T16:31:50;3.28;;;2.53;;
64950;SDS011;51482;47.014;7.652;2022-09-03T16:34:38;2.70;;;2.50;;
64950;SDS011;51482;47.014;7.652;2022-09-03T16:53:22;3.38;;;2.58;;
64950;SDS011;51482;47.014;7.652;2022-09-03T16:59:15;3.30;;;2.58;;
64950;SDS011;51482;47.014;7.652;2022-09-03T17:10:45;2.65;;;2.45;;
64950;SDS011;51482;47.014;7.652;2022-09-03T17:19:13;3.05;;;2.75;;
64950;SDS011;51482;47.014;7.652;2022-09-03T17:24:47;5.55;;;4.05;;
64950;SDS011;51482;47.014;7.652;2022-09-03T17:33:16;3.05;;;2.80;;
64950;SDS011;51482;47.014;7.652;2022-09-03T17:38:13;4.70;;;2.45;;
64950;SDS011;51482;47.014;7.652;2022-09-03T17:40:52;3.42;;;2.58;;
64950;SDS011;51482;47.014;7.652;2022-09-03T17:49:27;4.90;;;2.50;;
64950;SDS011;51482;47.014;7.652;2022-09-03T17:57:57;5.20;;;2.45;;
64950;SDS011;51482;47.014;7.652;2022-09-03T18:00:31;3.35;;;2.58;;
64950;SDS011;51482;47.014;7.652;2022-09-03T18:03:22;4.45;;;3.20;;
64950;SDS011;51482;47.014;7.652;2022-09-03T18:05:58;2.97;;;2.67;;
64950;SDS011;51482;47.014;7.652;2022-09-03T18:11:13;3.00;;;2.80;;
64950;SDS011;51482;47.014;7.652;2022-09-03T18:16:26;3.53;;;3.22;;
64950;SDS011;51482;47.014;7.652;2022-09-03T18:22:16;3.38;;;2.90;;
64950;SDS011;51482;47.014;7.652;2022-09-03T18:25:02;4.00;;;3.15;;
64950;SDS011;51482;47.014;7.652;2022-09-03T18:27:49;3.72;;;2.90;;
64950;SDS011;51482;47.014;7.652;2022-09-03T18:30:36;4.65;;;3.28;;
64950;SDS011;51482;47.014;7.652;2022-09-03T18:33:24;4.82;;;3.15;;
64950;SDS011;51482;47.014;7.652;2022-09-03T18:36:09;3.08;;;2.88;;
64950;SDS011;51482;47.014;7.652;2022-09-03T18:42:02;4.05;;;3.17;;
64950;SDS011;51482;47.014;7.652;2022-09-03T18:45:04;3.65;;;3.33;;
64950;SDS011;51482;47.014;7.652;2022-09-03T18:48:25;4.25;;;3.53;;
64950;SDS011;51482;47.014;7.652;2022-09-03T18:58:18;4.97;;;3.30;;
64950;SDS011;51482;47.014;7.652;2022-09-03T19:01:08;3.75;;;3.10;;
64950;SDS011;51482;47.014;7.652;2022-09-03T19:07:03;3.95;;;3.20;;
64950;SDS011;51482;47.014;7.652;2022-09-03T19:15:58;8.70;;;7.72;;
64950;SDS011;51482;47.014;7.652;2022-09-03T19:22:05;7.25;;;3.60;;
64950;SDS011;51482;47.014;7.652;2022-09-03T19:24:53;6.45;;;4.05;;
64950;SDS011;51482;47.014;7.652;2022-09-03T19:37:05;6.95;;;3.40;;
64950;SDS011;51482;47.014;7.652;2022-09-03T19:40:02;3.75;;;3.40;;
64950;SDS011;51482;47.014;7.652;2022-09-03T19:43:35;5.85;;;3.35;;
64950;SDS011;51482;47.014;7.652;2022-09-03T19:46:46;3.45;;;3.13;;
64950;SDS011;51482;47.014;7.652;2022-09-03T19:52:52;4.55;;;3.47;;
64950;SDS011;51482;47.014;7.652;2022-09-03T19:55:41;4.90;;;3.58;;
64950;SDS011;51482;47.014;7.652;2022-09-03T19:58:32;3.72;;;3.33;;
64950;SDS011;51482;47.014;7.652;2022-09-03T20:01:20;3.92;;;3.55;;
64950;SDS011;51482;47.014;7.652;2022-09-03T20:04:11;6.05;;;3.67;;
64950;SDS011;51482;47.014;7.652;2022-09-03T20:06:57;6.43;;;3.58;;
64950;SDS011;51482;47.014;7.652;2022-09-03T20:09:44;3.45;;;3.15;;
64950;SDS011;51482;47.014;7.652;2022-09-03T20:12:31;5.43;;;3.20;;
64950;SDS011;51482;47.014;7.652;2022-09-03T20:15:03;6.03;;;3.45;;
64950;SDS011;51482;47.014;7.652;2022-09-03T20:22:56;5.15;;;3.50;;
64950;SDS011;51482;47.014;7.652;2022-09-03T20:28:21;4.88;;;3.17;;
64950;SDS011;51482;47.014;7.652;2022-09-03T20:33:30;5.03;;;3.28;;